sensor_id;sensor_type;location;lat;lon;timestamp;temperature;humidity
11848;DHT22;5983;49.966;8.052;2024-01-30T00:01:03;1.60;99.90
11848;DHT22;5983;49.966;8.052;2024-01-30T00:03:30;1.50;99.90
11848;DHT22;5983;49.966;8.052;2024-01-30T00:05:57;1.50;99.90
11848;DHT22;5983;49.966;8.052;2024-01-30T00:08:25;1.50;99.90
11848;DHT22;5983;49.966;8.052;2024-01-30T00:10:52;1.50;99.90
11848;DHT22;5983;49.966;8.052;2024-01-30T00:13:18;1.50;99.90
11848;DHT22;5983;49.966;8.052;2024-01-30T00:15:45;1.40;99.90
11848;DHT22;5983;49.966;8.052;2024-01-30T00:18:12;1.50;99.90
11848;DHT22;5983;49.966;8.052;2024-01-30T00:20:38;1.50;99.90
11848;DHT22;5983;49.966;8.052;2024-01-30T00:23:05;1.40;99.90
11848;DHT22;5983;49.966;8.052;2024-01-30T00:25:33;1.40;99.90
11848;DHT22;5983;49.966;8.052;2024-01-30T00:28:00;1.40;99.90
11848;DHT22;5983;49.966;8.052;2024-01-30T00:30:27;1.40;99.90
11848;DHT22;5983;49.966;8.052;2024-01-30T00:32:54;1.40;99.90
11848;DHT22;5983;49.966;8.052;2024-01-30T00:35:20;1.30;99.90
11848;DHT22;5983;49.966;8.052;2024-01-30T00:37:47;1.30;99.90
11848;DHT22;5983;49.966;8.052;2024-01-30T00:40:14;1.30;99.90
11848;DHT22;5983;49.966;8.052;2024-01-30T00:42:44;1.30;99.90
11848;DHT22;5983;49.966;8.052;2024-01-30T00:45:14;1.30;99.90
11848;DHT22;5983;49.966;8.052;2024-01-30T00:47:41;1.20;99.90
11848;DHT22;5983;49.966;8.052;2024-01-30T00:50:07;1.20;99.90
11848;DHT22;5983;49.966;8.052;2024-01-30T00:52:35;1.20;99.90
11848;DHT22;5983;49.966;8.052;2024-01-30T00:55:01;1.20;99.90
11848;DHT22;5983;49.966;8.052;2024-01-30T00:57:29;1.20;99.90
11848;DHT22;5983;49.966;8.052;2024-01-30T00:59:57;1.20;99.90
11848;DHT22;5983;49.966;8.052;2024-01-30T01:02:23;1.20;99.90
11848;DHT22;5983;49.966;8.052;2024-01-30T01:04:50;1.30;99.90
11848;DHT22;5983;49.966;8.052;2024-01-30T01:07:17;1.30;99.90
11848;DHT22;5983;49.966;8.052;2024-01-30T01:09:43;1.30;99.90
11848;DHT22;5983;49.966;8.052;2024-01-30T01:12:10;1.30;99.90
11848;DHT22;5983;49.966;8.052;2024-01-30T01:14:37;1.30;99.90
11848;DHT22;5983;49.966;8.052;2024-01-30T01:17:05;1.30;99.90
11848;DHT22;5983;49.966;8.052;2024-01-30T01:19:31;1.20;99.90
11848;DHT22;5983;49.966;8.052;2024-01-30T01:21:58;1.20;99.90
11848;DHT22;5983;49.966;8.052;2024-01-30T01:24:25;1.20;99.90
11848;DHT22;5983;49.966;8.052;2024-01-30T01:26:51;1.20;99.90
11848;DHT22;5983;49.966;8.052;2024-01-30T01:29:18;1.10;99.90
11848;DHT22;5983;49.966;8.052;2024-01-30T01:31:46;1.10;99.90
11848;DHT22;5983;49.966;8.052;2024-01-30T01:34:14;1.10;99.90
11848;DHT22;5983;49.966;8.052;2024-01-30T01:36:40;1.10;99.90
11848;DHT22;5983;49.966;8.052;2024-01-30T01:39:07;1.10;99.90
11848;DHT22;5983;49.966;8.052;2024-01-30T01:41:34;1.10;99.90
11848;DHT22;5983;49.966;8.052;2024-01-30T01:44:02;1.00;99.90
11848;DHT22;5983;49.966;8.052;2024-01-30T01:46:29;0.90;99.90
11848;DHT22;5983;49.966;8.052;2024-01-30T01:48:57;0.90;99.90
11848;DHT22;5983;49.966;8.052;2024-01-30T01:51:26;0.90;99.90
11848;DHT22;5983;49.966;8.052;2024-01-30T01:53:54;0.90;99.90
11848;DHT22;5983;49.966;8.052;2024-01-30T01:56:22;1.00;99.90
11848;DHT22;5983;49.966;8.052;2024-01-30T01:58:50;0.90;99.90
11848;DHT22;5983;49.966;8.052;2024-01-30T02:01:20;1.00;99.90
11848;DHT22;5983;49.966;8.052;2024-01-30T02:03:47;0.90;99.90
11848;DHT22;5983;49.966;8.052;2024-01-30T02:06:14;0.90;99.90
11848;DHT22;5983;49.966;8.052;2024-01-30T02:08:42;0.90;99.90
11848;DHT22;5983;49.966;8.052;2024-01-30T02:11:09;0.90;99.90
11848;DHT22;5983;49.966;8.052;2024-01-30T02:13:36;0.90;99.90
11848;DHT22;5983;49.966;8.052;2024-01-30T02:16:03;0.90;99.90
11848;DHT22;5983;49.966;8.052;2024-01-30T02:18:31;0.90;99.90
11848;DHT22;5983;49.966;8.052;2024-01-30T02:20:58;1.00;99.90
11848;DHT22;5983;49.966;8.052;2024-01-30T02:23:28;1.00;99.90
11848;DHT22;5983;49.966;8.052;2024-01-30T02:25:56;1.00;99.90
11848;DHT22;5983;49.966;8.052;2024-01-30T02:28:23;1.00;99.90
11848;DHT22;5983;49.966;8.052;2024-01-30T02:30:50;0.90;99.90
11848;DHT22;5983;49.966;8.052;2024-01-30T02:33:17;0.90;99.90
11848;DHT22;5983;49.966;8.052;2024-01-30T02:35:43;0.80;99.90
11848;DHT22;5983;49.966;8.052;2024-01-30T02:38:10;0.80;99.90
11848;DHT22;5983;49.966;8.052;2024-01-30T02:40:38;0.80;99.90
11848;DHT22;5983;49.966;8.052;2024-01-30T02:43:05;0.80;99.90
11848;DHT22;5983;49.966;8.052;2024-01-30T02:45:32;0.80;99.90
11848;DHT22;5983;49.966;8.052;2024-01-30T02:47:58;0.80;99.90
11848;DHT22;5983;49.966;8.052;2024-01-30T02:50:25;0.80;99.90
11848;DHT22;5983;49.966;8.052;2024-01-30T02:52:52;0.80;99.90
11848;DHT22;5983;49.966;8.052;2024-01-30T02:55:19;0.80;99.90
11848;DHT22;5983;49.966;8.052;2024-01-30T02:57:47;0.70;99.90
11848;DHT22;5983;49.966;8.052;2024-01-30T03:00:14;0.70;99.90
11848;DHT22;5983;49.966;8.052;2024-01-30T03:02:41;0.70;99.90
11848;DHT22;5983;49.966;8.052;2024-01-30T03:05:07;0.70;99.90
11848;DHT22;5983;49.966;8.052;2024-01-30T03:07:34;0.70;99.90
11848;DHT22;5983;49.966;8.052;2024-01-30T03:10:01;0.70;99.90
11848;DHT22;5983;49.966;8.052;2024-01-30T03:12:28;0.70;99.90
11848;DHT22;5983;49.966;8.052;2024-01-30T03:14:56;0.70;99.90
11848;DHT22;5983;49.966;8.052;2024-01-30T03:17:23;0.60;99.90
11848;DHT22;5983;49.966;8.052;2024-01-30T03:19:50;0.60;99.90
11848;DHT22;5983;49.966;8.052;2024-01-30T03:22:17;0.60;99.90
11848;DHT22;5983;49.966;8.052;2024-01-30T03:24:44;0.50;99.90
11848;DHT22;5983;49.966;8.052;2024-01-30T03:27:11;0.40;99.90
11848;DHT22;5983;49.966;8.052;2024-01-30T03:29:37;0.50;99.90
11848;DHT22;5983;49.966;8.052;2024-01-30T03:32:06;0.50;99.90
11848;DHT22;5983;49.966;8.052;2024-01-30T03:34:33;0.50;99.90
11848;DHT22;5983;49.966;8.052;2024-01-30T03:36:59;0.50;99.90
11848;DHT22;5983;49.966;8.052;2024-01-30T03:39:26;0.50;99.90
11848;DHT22;5983;49.966;8.052;2024-01-30T03:41:53;0.50;99.90
11848;DHT22;5983;49.966;8.052;2024-01-30T03:44:20;0.50;99.90
11848;DHT22;5983;49.966;8.052;2024-01-30T03:46:46;0.50;99.90
11848;DHT22;5983;49.966;8.052;2024-01-30T03:49:14;0.50;99.90
11848;DHT22;5983;49.966;8.052;2024-01-30T03:51:41;0.50;99.90
11848;DHT22;5983;49.966;8.052;2024-01-30T03:54:08;0.50;99.90
11848;DHT22;5983;49.966;8.052;2024-01-30T03:56:35;0.50;99.90
11848;DHT22;5983;49.966;8.052;2024-01-30T03:59:02;0.50;99.90
11848;DHT22;5983;49.966;8.052;2024-01-30T04:01:29;0.50;99.90
11848;DHT22;5983;49.966;8.052;2024-01-30T04:03:55;0.40;99.90
11848;DHT22;5983;49.966;8.052;2024-01-30T04:06:23;0.40;99.90
11848;DHT22;5983;49.966;8.052;2024-01-30T04:08:50;0.40;99.90
11848;DHT22;5983;49.966;8.052;2024-01-30T04:11:18;0.40;99.90
11848;DHT22;5983;49.966;8.052;2024-01-30T04:13:44;0.40;99.90
11848;DHT22;5983;49.966;8.052;2024-01-30T04:16:18;0.50;99.90
11848;DHT22;5983;49.966;8.052;2024-01-30T04:18:46;0.40;99.90
11848;DHT22;5983;49.966;8.052;2024-01-30T04:21:12;0.40;99.90
11848;DHT22;5983;49.966;8.052;2024-01-30T04:23:41;0.40;99.90
11848;DHT22;5983;49.966;8.052;2024-01-30T04:26:08;0.40;99.90
11848;DHT22;5983;49.966;8.052;2024-01-30T04:28:34;0.40;99.90
11848;DHT22;5983;49.966;8.052;2024-01-30T04:31:01;0.40;99.90
11848;DHT22;5983;49.966;8.052;2024-01-30T04:33:28;0.30;99.90
11848;DHT22;5983;49.966;8.052;2024-01-30T04:35:55;0.30;99.90
11848;DHT22;5983;49.966;8.052;2024-01-30T04:38:21;0.30;99.90
11848;DHT22;5983;49.966;8.052;2024-01-30T04:40:50;0.30;99.90
11848;DHT22;5983;49.966;8.052;2024-01-30T04:43:16;0.20;99.90
11848;DHT22;5983;49.966;8.052;2024-01-30T04:45:44;0.20;99.90
11848;DHT22;5983;49.966;8.052;2024-01-30T04:48:11;0.20;99.90
11848;DHT22;5983;49.966;8.052;2024-01-30T04:50:37;0.20;99.90
11848;DHT22;5983;49.966;8.052;2024-01-30T04:53:04;0.20;99.90
11848;DHT22;5983;49.966;8.052;2024-01-30T04:55:31;0.20;99.90
11848;DHT22;5983;49.966;8.052;2024-01-30T04:57:59;0.20;99.90
11848;DHT22;5983;49.966;8.052;2024-01-30T05:00:26;0.20;99.90
11848;DHT22;5983;49.966;8.052;2024-01-30T05:02:54;0.20;99.90
11848;DHT22;5983;49.966;8.052;2024-01-30T05:05:21;0.20;99.90
11848;DHT22;5983;49.966;8.052;2024-01-30T05:07:48;0.30;99.90
11848;DHT22;5983;49.966;8.052;2024-01-30T05:10:15;0.30;99.90
11848;DHT22;5983;49.966;8.052;2024-01-30T05:12:42;0.30;99.90
11848;DHT22;5983;49.966;8.052;2024-01-30T05:15:10;0.30;99.90
11848;DHT22;5983;49.966;8.052;2024-01-30T05:17:37;0.20;99.90
11848;DHT22;5983;49.966;8.052;2024-01-30T05:20:04;0.20;99.90
11848;DHT22;5983;49.966;8.052;2024-01-30T05:22:32;0.20;99.90
11848;DHT22;5983;49.966;8.052;2024-01-30T05:24:59;0.20;99.90
11848;DHT22;5983;49.966;8.052;2024-01-30T05:27:26;0.20;99.90
11848;DHT22;5983;49.966;8.052;2024-01-30T05:29:52;0.20;99.90
11848;DHT22;5983;49.966;8.052;2024-01-30T05:32:21;0.20;99.90
11848;DHT22;5983;49.966;8.052;2024-01-30T05:34:47;0.20;99.90
11848;DHT22;5983;49.966;8.052;2024-01-30T05:37:15;0.20;99.90
11848;DHT22;5983;49.966;8.052;2024-01-30T05:39:43;0.20;99.90
11848;DHT22;5983;49.966;8.052;2024-01-30T05:42:09;0.20;99.90
11848;DHT22;5983;49.966;8.052;2024-01-30T05:44:37;0.20;99.90
11848;DHT22;5983;49.966;8.052;2024-01-30T05:47:03;0.20;99.90
11848;DHT22;5983;49.966;8.052;2024-01-30T05:49:31;0.10;99.90
11848;DHT22;5983;49.966;8.052;2024-01-30T05:51:58;0.10;99.90
11848;DHT22;5983;49.966;8.052;2024-01-30T05:54:25;0.10;99.90
11848;DHT22;5983;49.966;8.052;2024-01-30T05:56:54;0.10;99.90
11848;DHT22;5983;49.966;8.052;2024-01-30T05:59:22;0.10;99.90
11848;DHT22;5983;49.966;8.052;2024-01-30T06:01:49;0.20;99.90
11848;DHT22;5983;49.966;8.052;2024-01-30T06:04:16;0.10;99.90
11848;DHT22;5983;49.966;8.052;2024-01-30T06:06:44;0.10;99.90
11848;DHT22;5983;49.966;8.052;2024-01-30T06:09:10;0.10;99.90
11848;DHT22;5983;49.966;8.052;2024-01-30T06:11:38;0.00;99.90
11848;DHT22;5983;49.966;8.052;2024-01-30T06:14:04;0.00;99.90
11848;DHT22;5983;49.966;8.052;2024-01-30T06:16:31;-0.10;99.90
11848;DHT22;5983;49.966;8.052;2024-01-30T06:18:58;-0.10;99.90
11848;DHT22;5983;49.966;8.052;2024-01-30T06:21:25;-0.10;99.90
11848;DHT22;5983;49.966;8.052;2024-01-30T06:23:53;-0.10;99.90
11848;DHT22;5983;49.966;8.052;2024-01-30T06:26:20;-0.10;99.90
11848;DHT22;5983;49.966;8.052;2024-01-30T06:28:47;-0.10;99.90
11848;DHT22;5983;49.966;8.052;2024-01-30T06:31:13;-0.10;99.90
11848;DHT22;5983;49.966;8.052;2024-01-30T06:33:41;-0.10;99.90
11848;DHT22;5983;49.966;8.052;2024-01-30T06:36:08;-0.10;99.90
11848;DHT22;5983;49.966;8.052;2024-01-30T06:38:35;-0.10;99.90
11848;DHT22;5983;49.966;8.052;2024-01-30T06:41:03;-0.10;99.90
11848;DHT22;5983;49.966;8.052;2024-01-30T06:43:30;-0.10;99.90
11848;DHT22;5983;49.966;8.052;2024-01-30T06:45:57;0.00;99.90
11848;DHT22;5983;49.966;8.052;2024-01-30T06:48:24;-0.10;99.90
11848;DHT22;5983;49.966;8.052;2024-01-30T06:50:52;-0.10;99.90
11848;DHT22;5983;49.966;8.052;2024-01-30T06:53:20;-0.10;99.90
11848;DHT22;5983;49.966;8.052;2024-01-30T06:55:46;-0.10;99.90
11848;DHT22;5983;49.966;8.052;2024-01-30T06:58:14;-0.10;99.90
11848;DHT22;5983;49.966;8.052;2024-01-30T07:00:41;-0.10;99.90
11848;DHT22;5983;49.966;8.052;2024-01-30T07:03:08;-0.10;99.90
11848;DHT22;5983;49.966;8.052;2024-01-30T07:05:35;-0.10;99.90
11848;DHT22;5983;49.966;8.052;2024-01-30T07:08:02;-0.10;99.90
11848;DHT22;5983;49.966;8.052;2024-01-30T07:10:29;-0.10;99.90
11848;DHT22;5983;49.966;8.052;2024-01-30T07:12:56;0.00;99.90
11848;DHT22;5983;49.966;8.052;2024-01-30T07:15:25;0.00;99.90
11848;DHT22;5983;49.966;8.052;2024-01-30T07:17:51;0.00;99.90
11848;DHT22;5983;49.966;8.052;2024-01-30T07:20:18;0.00;99.90
11848;DHT22;5983;49.966;8.052;2024-01-30T07:22:45;0.00;99.90
11848;DHT22;5983;49.966;8.052;2024-01-30T07:25:12;0.00;99.90
11848;DHT22;5983;49.966;8.052;2024-01-30T07:27:39;0.00;99.90
11848;DHT22;5983;49.966;8.052;2024-01-30T07:30:06;0.00;99.90
11848;DHT22;5983;49.966;8.052;2024-01-30T07:32:35;0.00;99.90
11848;DHT22;5983;49.966;8.052;2024-01-30T07:35:02;0.00;99.90
11848;DHT22;5983;49.966;8.052;2024-01-30T07:37:29;0.00;99.90
11848;DHT22;5983;49.966;8.052;2024-01-30T07:39:55;0.10;99.90
11848;DHT22;5983;49.966;8.052;2024-01-30T07:42:22;0.10;99.90
11848;DHT22;5983;49.966;8.052;2024-01-30T07:44:49;0.20;99.90
11848;DHT22;5983;49.966;8.052;2024-01-30T07:47:16;0.20;99.90
11848;DHT22;5983;49.966;8.052;2024-01-30T07:49:44;0.20;99.90
11848;DHT22;5983;49.966;8.052;2024-01-30T07:52:10;0.30;99.90
11848;DHT22;5983;49.966;8.052;2024-01-30T07:54:37;0.30;99.90
11848;DHT22;5983;49.966;8.052;2024-01-30T07:57:04;0.40;99.90
11848;DHT22;5983;49.966;8.052;2024-01-30T07:59:31;0.40;99.90
11848;DHT22;5983;49.966;8.052;2024-01-30T08:01:58;0.50;99.90
11848;DHT22;5983;49.966;8.052;2024-01-30T08:04:25;0.50;99.90
11848;DHT22;5983;49.966;8.052;2024-01-30T08:06:53;0.60;99.90
11848;DHT22;5983;49.966;8.052;2024-01-30T08:09:20;0.70;99.90
11848;DHT22;5983;49.966;8.052;2024-01-30T08:11:46;0.80;99.90
11848;DHT22;5983;49.966;8.052;2024-01-30T08:14:13;0.90;99.90
11848;DHT22;5983;49.966;8.052;2024-01-30T08:16:40;1.00;99.90
11848;DHT22;5983;49.966;8.052;2024-01-30T08:19:07;1.10;99.90
11848;DHT22;5983;49.966;8.052;2024-01-30T08:21:33;1.10;99.90
11848;DHT22;5983;49.966;8.052;2024-01-30T08:24:04;1.20;99.90
11848;DHT22;5983;49.966;8.052;2024-01-30T08:26:32;1.20;99.90
11848;DHT22;5983;49.966;8.052;2024-01-30T08:29:00;1.20;99.90
11848;DHT22;5983;49.966;8.052;2024-01-30T08:31:27;1.20;99.90
11848;DHT22;5983;49.966;8.052;2024-01-30T08:33:54;1.20;99.90
11848;DHT22;5983;49.966;8.052;2024-01-30T08:36:21;1.30;99.90
11848;DHT22;5983;49.966;8.052;2024-01-30T08:38:47;1.30;99.90
11848;DHT22;5983;49.966;8.052;2024-01-30T08:41:16;1.40;99.90
11848;DHT22;5983;49.966;8.052;2024-01-30T08:43:43;1.40;99.90
11848;DHT22;5983;49.966;8.052;2024-01-30T08:46:10;1.50;99.90
11848;DHT22;5983;49.966;8.052;2024-01-30T08:48:37;1.50;99.90
11848;DHT22;5983;49.966;8.052;2024-01-30T08:51:04;1.50;99.90
11848;DHT22;5983;49.966;8.052;2024-01-30T08:53:33;1.60;99.90
11848;DHT22;5983;49.966;8.052;2024-01-30T08:56:01;1.60;99.90
11848;DHT22;5983;49.966;8.052;2024-01-30T08:58:29;1.70;99.90
11848;DHT22;5983;49.966;8.052;2024-01-30T09:00:56;1.80;99.90
11848;DHT22;5983;49.966;8.052;2024-01-30T09:03:23;1.80;99.90
11848;DHT22;5983;49.966;8.052;2024-01-30T09:05:49;1.90;99.90
11848;DHT22;5983;49.966;8.052;2024-01-30T09:08:16;2.00;99.90
11848;DHT22;5983;49.966;8.052;2024-01-30T09:10:43;2.10;99.90
11848;DHT22;5983;49.966;8.052;2024-01-30T09:13:10;2.20;99.90
11848;DHT22;5983;49.966;8.052;2024-01-30T09:15:38;2.20;99.90
11848;DHT22;5983;49.966;8.052;2024-01-30T09:18:05;2.30;99.90
11848;DHT22;5983;49.966;8.052;2024-01-30T09:20:32;2.40;99.90
11848;DHT22;5983;49.966;8.052;2024-01-30T09:22:59;2.50;99.90
11848;DHT22;5983;49.966;8.052;2024-01-30T09:25:26;2.60;99.90
11848;DHT22;5983;49.966;8.052;2024-01-30T09:27:53;2.60;99.90
11848;DHT22;5983;49.966;8.052;2024-01-30T09:30:19;2.70;99.90
11848;DHT22;5983;49.966;8.052;2024-01-30T09:32:48;2.80;99.90
11848;DHT22;5983;49.966;8.052;2024-01-30T09:35:15;2.80;99.90
11848;DHT22;5983;49.966;8.052;2024-01-30T09:37:42;2.90;99.90
11848;DHT22;5983;49.966;8.052;2024-01-30T09:40:08;2.90;99.90
11848;DHT22;5983;49.966;8.052;2024-01-30T09:42:36;2.90;99.90
11848;DHT22;5983;49.966;8.052;2024-01-30T09:45:02;2.90;99.90
11848;DHT22;5983;49.966;8.052;2024-01-30T09:47:31;3.00;99.90
11848;DHT22;5983;49.966;8.052;2024-01-30T09:49:59;3.10;99.90
11848;DHT22;5983;49.966;8.052;2024-01-30T09:52:28;3.10;99.90
11848;DHT22;5983;49.966;8.052;2024-01-30T09:54:55;3.20;99.90
11848;DHT22;5983;49.966;8.052;2024-01-30T09:57:22;3.30;99.90
11848;DHT22;5983;49.966;8.052;2024-01-30T09:59:49;3.30;99.90
11848;DHT22;5983;49.966;8.052;2024-01-30T10:02:17;3.40;99.90
11848;DHT22;5983;49.966;8.052;2024-01-30T10:04:46;3.40;99.90
11848;DHT22;5983;49.966;8.052;2024-01-30T10:07:15;3.30;99.90
11848;DHT22;5983;49.966;8.052;2024-01-30T10:09:42;3.40;99.90
11848;DHT22;5983;49.966;8.052;2024-01-30T10:12:08;3.50;99.90
11848;DHT22;5983;49.966;8.052;2024-01-30T10:14:37;3.60;99.90
11848;DHT22;5983;49.966;8.052;2024-01-30T10:17:04;3.80;99.90
11848;DHT22;5983;49.966;8.052;2024-01-30T10:19:32;3.90;99.90
11848;DHT22;5983;49.966;8.052;2024-01-30T10:21:59;4.10;99.90
11848;DHT22;5983;49.966;8.052;2024-01-30T10:24:27;4.20;99.90
11848;DHT22;5983;49.966;8.052;2024-01-30T10:26:55;4.30;99.90
11848;DHT22;5983;49.966;8.052;2024-01-30T10:29:21;4.40;99.90
11848;DHT22;5983;49.966;8.052;2024-01-30T10:31:57;4.50;99.90
11848;DHT22;5983;49.966;8.052;2024-01-30T10:34:24;4.50;99.90
11848;DHT22;5983;49.966;8.052;2024-01-30T10:36:51;4.70;99.90
11848;DHT22;5983;49.966;8.052;2024-01-30T10:39:29;4.80;99.90
11848;DHT22;5983;49.966;8.052;2024-01-30T10:41:59;5.00;99.90
11848;DHT22;5983;49.966;8.052;2024-01-30T10:44:30;5.10;99.90
11848;DHT22;5983;49.966;8.052;2024-01-30T10:47:05;5.20;99.90
11848;DHT22;5983;49.966;8.052;2024-01-30T10:49:34;5.20;99.90
11848;DHT22;5983;49.966;8.052;2024-01-30T10:52:01;5.40;99.90
11848;DHT22;5983;49.966;8.052;2024-01-30T10:54:32;5.50;99.90
11848;DHT22;5983;49.966;8.052;2024-01-30T10:57:01;5.70;99.90
11848;DHT22;5983;49.966;8.052;2024-01-30T10:59:29;5.90;99.90
11848;DHT22;5983;49.966;8.052;2024-01-30T11:01:57;6.00;99.90
11848;DHT22;5983;49.966;8.052;2024-01-30T11:04:25;6.00;99.90
11848;DHT22;5983;49.966;8.052;2024-01-30T11:06:52;6.00;99.90
11848;DHT22;5983;49.966;8.052;2024-01-30T11:09:20;6.00;99.90
11848;DHT22;5983;49.966;8.052;2024-01-30T11:11:52;5.90;99.90
11848;DHT22;5983;49.966;8.052;2024-01-30T11:14:25;5.90;99.90
11848;DHT22;5983;49.966;8.052;2024-01-30T11:16:52;6.00;99.90
11848;DHT22;5983;49.966;8.052;2024-01-30T11:19:22;6.10;99.90
11848;DHT22;5983;49.966;8.052;2024-01-30T11:21:50;6.10;99.90
11848;DHT22;5983;49.966;8.052;2024-01-30T11:24:19;6.10;99.90
11848;DHT22;5983;49.966;8.052;2024-01-30T11:26:47;6.00;99.90
11848;DHT22;5983;49.966;8.052;2024-01-30T11:29:16;6.00;99.90
11848;DHT22;5983;49.966;8.052;2024-01-30T11:31:51;6.00;99.90
11848;DHT22;5983;49.966;8.052;2024-01-30T11:34:18;6.10;99.90
11848;DHT22;5983;49.966;8.052;2024-01-30T11:36:47;6.50;99.90
11848;DHT22;5983;49.966;8.052;2024-01-30T11:39:20;7.10;99.90
11848;DHT22;5983;49.966;8.052;2024-01-30T11:41:47;8.00;99.90
11848;DHT22;5983;49.966;8.052;2024-01-30T11:44:18;8.50;99.90
11848;DHT22;5983;49.966;8.052;2024-01-30T11:46:46;8.70;99.90
11848;DHT22;5983;49.966;8.052;2024-01-30T11:49:13;8.80;99.90
11848;DHT22;5983;49.966;8.052;2024-01-30T11:51:40;8.90;99.90
11848;DHT22;5983;49.966;8.052;2024-01-30T11:54:07;9.00;99.90
11848;DHT22;5983;49.966;8.052;2024-01-30T11:56:34;9.30;99.90
11848;DHT22;5983;49.966;8.052;2024-01-30T11:59:00;9.40;99.90
11848;DHT22;5983;49.966;8.052;2024-01-30T12:01:29;9.90;99.90
11848;DHT22;5983;49.966;8.052;2024-01-30T12:03:55;10.70;99.90
11848;DHT22;5983;49.966;8.052;2024-01-30T12:06:23;11.40;99.90
11848;DHT22;5983;49.966;8.052;2024-01-30T12:08:57;11.90;99.90
11848;DHT22;5983;49.966;8.052;2024-01-30T12:11:25;11.90;99.90
11848;DHT22;5983;49.966;8.052;2024-01-30T12:13:52;11.60;99.90
11848;DHT22;5983;49.966;8.052;2024-01-30T12:16:19;11.40;99.90
11848;DHT22;5983;49.966;8.052;2024-01-30T12:18:47;11.20;99.90
11848;DHT22;5983;49.966;8.052;2024-01-30T12:21:16;11.30;99.90
11848;DHT22;5983;49.966;8.052;2024-01-30T12:23:43;11.20;99.90
11848;DHT22;5983;49.966;8.052;2024-01-30T12:26:09;11.30;99.90
11848;DHT22;5983;49.966;8.052;2024-01-30T12:28:37;11.60;99.90
11848;DHT22;5983;49.966;8.052;2024-01-30T12:31:14;11.50;99.90
11848;DHT22;5983;49.966;8.052;2024-01-30T12:33:40;11.10;99.90
11848;DHT22;5983;49.966;8.052;2024-01-30T12:36:09;10.70;99.90
11848;DHT22;5983;49.966;8.052;2024-01-30T12:38:37;10.40;99.90
11848;DHT22;5983;49.966;8.052;2024-01-30T12:41:04;10.40;99.90
11848;DHT22;5983;49.966;8.052;2024-01-30T12:43:33;10.40;99.90
11848;DHT22;5983;49.966;8.052;2024-01-30T12:46:00;10.30;99.90
11848;DHT22;5983;49.966;8.052;2024-01-30T12:48:27;10.10;99.90
11848;DHT22;5983;49.966;8.052;2024-01-30T12:50:55;9.90;99.90
11848;DHT22;5983;49.966;8.052;2024-01-30T12:53:23;9.70;99.90
11848;DHT22;5983;49.966;8.052;2024-01-30T12:55:50;9.40;99.90
11848;DHT22;5983;49.966;8.052;2024-01-30T12:58:17;9.10;99.90
11848;DHT22;5983;49.966;8.052;2024-01-30T13:00:44;9.10;99.90
11848;DHT22;5983;49.966;8.052;2024-01-30T13:03:10;9.10;99.90
11848;DHT22;5983;49.966;8.052;2024-01-30T13:05:37;9.10;99.90
11848;DHT22;5983;49.966;8.052;2024-01-30T13:08:04;9.10;99.90
11848;DHT22;5983;49.966;8.052;2024-01-30T13:10:33;9.20;99.90
11848;DHT22;5983;49.966;8.052;2024-01-30T13:13:00;9.50;99.90
11848;DHT22;5983;49.966;8.052;2024-01-30T13:15:26;10.10;99.90
11848;DHT22;5983;49.966;8.052;2024-01-30T13:17:53;10.60;99.90
11848;DHT22;5983;49.966;8.052;2024-01-30T13:20:20;10.90;99.90
11848;DHT22;5983;49.966;8.052;2024-01-30T13:22:47;11.30;99.90
11848;DHT22;5983;49.966;8.052;2024-01-30T13:25:15;11.40;99.90
11848;DHT22;5983;49.966;8.052;2024-01-30T13:27:43;11.40;99.90
11848;DHT22;5983;49.966;8.052;2024-01-30T13:30:11;11.30;99.90
11848;DHT22;5983;49.966;8.052;2024-01-30T13:32:38;11.10;99.90
11848;DHT22;5983;49.966;8.052;2024-01-30T13:35:06;10.90;99.90
11848;DHT22;5983;49.966;8.052;2024-01-30T13:37:34;10.70;99.90
11848;DHT22;5983;49.966;8.052;2024-01-30T13:40:01;10.50;99.90
11848;DHT22;5983;49.966;8.052;2024-01-30T13:42:28;10.20;99.90
11848;DHT22;5983;49.966;8.052;2024-01-30T13:44:56;10.00;99.90
11848;DHT22;5983;49.966;8.052;2024-01-30T13:47:23;9.70;99.90
11848;DHT22;5983;49.966;8.052;2024-01-30T13:49:50;9.50;99.90
11848;DHT22;5983;49.966;8.052;2024-01-30T13:52:18;9.30;99.90
11848;DHT22;5983;49.966;8.052;2024-01-30T13:54:45;9.20;99.90
11848;DHT22;5983;49.966;8.052;2024-01-30T13:57:12;8.90;99.90
11848;DHT22;5983;49.966;8.052;2024-01-30T13:59:39;8.80;99.90
11848;DHT22;5983;49.966;8.052;2024-01-30T14:02:07;8.70;99.90
11848;DHT22;5983;49.966;8.052;2024-01-30T14:04:35;8.60;99.90
11848;DHT22;5983;49.966;8.052;2024-01-30T14:07:02;8.50;99.90
11848;DHT22;5983;49.966;8.052;2024-01-30T14:09:32;8.40;99.90
11848;DHT22;5983;49.966;8.052;2024-01-30T14:12:01;8.30;99.90
11848;DHT22;5983;49.966;8.052;2024-01-30T14:14:29;8.20;99.90
11848;DHT22;5983;49.966;8.052;2024-01-30T14:16:58;8.10;99.90
11848;DHT22;5983;49.966;8.052;2024-01-30T14:19:29;8.10;99.90
11848;DHT22;5983;49.966;8.052;2024-01-30T14:22:02;8.00;99.90
11848;DHT22;5983;49.966;8.052;2024-01-30T14:24:30;8.00;99.90
11848;DHT22;5983;49.966;8.052;2024-01-30T14:27:04;7.90;99.90
11848;DHT22;5983;49.966;8.052;2024-01-30T14:29:33;7.90;99.90
11848;DHT22;5983;49.966;8.052;2024-01-30T14:32:07;7.80;99.90
11848;DHT22;5983;49.966;8.052;2024-01-30T14:34:36;7.80;99.90
11848;DHT22;5983;49.966;8.052;2024-01-30T14:37:04;7.70;99.90
11848;DHT22;5983;49.966;8.052;2024-01-30T14:39:32;7.70;99.90
11848;DHT22;5983;49.966;8.052;2024-01-30T14:41:59;7.60;99.90
11848;DHT22;5983;49.966;8.052;2024-01-30T14:44:26;7.60;99.90
11848;DHT22;5983;49.966;8.052;2024-01-30T14:46:53;7.50;99.90
11848;DHT22;5983;49.966;8.052;2024-01-30T14:49:20;7.40;99.90
11848;DHT22;5983;49.966;8.052;2024-01-30T14:51:48;7.40;99.90
11848;DHT22;5983;49.966;8.052;2024-01-30T14:54:15;7.40;99.90
11848;DHT22;5983;49.966;8.052;2024-01-30T14:56:42;7.30;99.90
11848;DHT22;5983;49.966;8.052;2024-01-30T14:59:09;7.30;99.90
11848;DHT22;5983;49.966;8.052;2024-01-30T15:01:36;7.20;99.90
11848;DHT22;5983;49.966;8.052;2024-01-30T15:04:03;7.20;99.90
11848;DHT22;5983;49.966;8.052;2024-01-30T15:06:30;7.10;99.90
11848;DHT22;5983;49.966;8.052;2024-01-30T15:09:00;7.10;99.90
11848;DHT22;5983;49.966;8.052;2024-01-30T15:11:28;7.00;99.90
11848;DHT22;5983;49.966;8.052;2024-01-30T15:13:56;7.00;99.90
11848;DHT22;5983;49.966;8.052;2024-01-30T15:16:22;7.00;99.90
11848;DHT22;5983;49.966;8.052;2024-01-30T15:18:49;6.90;99.90
11848;DHT22;5983;49.966;8.052;2024-01-30T15:21:16;6.90;99.90
11848;DHT22;5983;49.966;8.052;2024-01-30T15:23:45;6.90;99.90
11848;DHT22;5983;49.966;8.052;2024-01-30T15:26:15;6.90;99.90
11848;DHT22;5983;49.966;8.052;2024-01-30T15:28:42;6.90;99.90
11848;DHT22;5983;49.966;8.052;2024-01-30T15:31:09;6.80;99.90
11848;DHT22;5983;49.966;8.052;2024-01-30T15:33:36;6.80;99.90
11848;DHT22;5983;49.966;8.052;2024-01-30T15:36:03;6.80;99.90
11848;DHT22;5983;49.966;8.052;2024-01-30T15:38:31;6.80;99.90
11848;DHT22;5983;49.966;8.052;2024-01-30T15:40:58;6.70;99.90
11848;DHT22;5983;49.966;8.052;2024-01-30T15:43:26;6.80;99.90
11848;DHT22;5983;49.966;8.052;2024-01-30T15:45:53;6.70;99.90
11848;DHT22;5983;49.966;8.052;2024-01-30T15:48:20;6.70;99.90
11848;DHT22;5983;49.966;8.052;2024-01-30T15:50:47;6.70;99.90
11848;DHT22;5983;49.966;8.052;2024-01-30T15:53:15;6.70;99.90
11848;DHT22;5983;49.966;8.052;2024-01-30T15:55:42;6.70;99.90
11848;DHT22;5983;49.966;8.052;2024-01-30T15:58:09;6.60;99.90
11848;DHT22;5983;49.966;8.052;2024-01-30T16:00:37;6.60;99.90